createdAt,value
2022-08-30T00:04:30.811Z,2.03
2022-08-30T00:07:32.808Z,2.85
2022-08-30T00:13:42.666Z,2.00
2022-08-30T00:16:44.758Z,2.33
2022-08-30T00:22:49.324Z,2.40
2022-08-30T00:25:53.648Z,2.50
2022-08-30T00:28:55.601Z,2.15
2022-08-30T00:31:57.769Z,2.40
2022-08-30T00:34:59.891Z,2.10
2022-08-30T00:41:06.176Z,2.20
2022-08-30T00:47:10.888Z,2.42
2022-08-30T00:50:15.064Z,2.20
2022-08-30T00:53:21.704Z,2.25
2022-08-30T00:56:28.825Z,2.45
2022-08-30T00:59:31.852Z,2.50
2022-08-30T01:02:34.081Z,2.78
2022-08-30T01:05:39.693Z,2.42
2022-08-30T01:08:42.707Z,2.53
2022-08-30T01:11:46.246Z,2.55
2022-08-30T01:14:49.100Z,2.40
2022-08-30T01:17:51.220Z,2.60
2022-08-30T01:21:10.974Z,2.65
2022-08-30T01:24:13.676Z,3.13
2022-08-30T01:27:17.567Z,3.00
2022-08-30T01:30:19.928Z,2.55
2022-08-30T01:33:22.742Z,2.58
2022-08-30T01:36:24.943Z,2.35
2022-08-30T01:39:27.318Z,2.50
2022-08-30T01:42:29.382Z,2.95
2022-08-30T01:48:33.716Z,2.70
2022-08-30T01:51:38.476Z,2.58
2022-08-30T01:54:42.724Z,2.35
2022-08-30T01:57:44.700Z,2.30
2022-08-30T02:00:46.647Z,2.40
2022-08-30T02:03:49.006Z,2.20
2022-08-30T02:06:51.060Z,2.55
2022-08-30T02:09:54.132Z,2.63
2022-08-30T02:12:56.218Z,2.35
2022-08-30T02:15:58.698Z,2.13
2022-08-30T02:19:00.684Z,2.35
2022-08-30T02:22:02.904Z,2.33
2022-08-30T02:25:07.145Z,2.33
2022-08-30T02:28:22.674Z,2.20
2022-08-30T02:31:27.009Z,2.33
2022-08-30T02:34:28.959Z,2.22
2022-08-30T02:37:30.955Z,2.00
2022-08-30T02:40:34.289Z,2.17
2022-08-30T02:43:36.269Z,2.40
2022-08-30T02:46:38.669Z,2.28
2022-08-30T02:49:40.612Z,2.25
2022-08-30T02:52:42.810Z,2.10
2022-08-30T02:55:47.893Z,2.42
2022-08-30T02:58:49.759Z,2.22
2022-08-30T03:01:51.664Z,2.72
2022-08-30T03:04:53.660Z,2.38
2022-08-30T03:07:55.728Z,2.47
2022-08-30T03:13:59.686Z,2.33
2022-08-30T03:17:01.934Z,2.25
2022-08-30T03:20:04.834Z,2.20
2022-08-30T03:23:10.274Z,2.30
2022-08-30T03:26:23.298Z,2.30
2022-08-30T03:29:25.526Z,2.45
2022-08-30T03:35:33.307Z,2.30
2022-08-30T03:38:36.170Z,2.10
2022-08-30T03:41:38.122Z,2.13
2022-08-30T03:44:41.270Z,2.13
2022-08-30T03:50:45.533Z,2.17
2022-08-30T03:53:47.358Z,2.35
2022-08-30T03:56:49.401Z,2.08
2022-08-30T03:59:51.455Z,2.40
2022-08-30T04:02:53.456Z,2.17
2022-08-30T04:05:56.155Z,2.47
2022-08-30T04:08:58.033Z,2.13
2022-08-30T04:11:59.911Z,2.10
2022-08-30T04:15:02.362Z,2.22
2022-08-30T04:18:04.255Z,2.45
2022-08-30T04:21:06.587Z,2.22
2022-08-30T04:24:09.094Z,1.80
2022-08-30T04:27:11.110Z,2.72
2022-08-30T04:30:17.035Z,2.20
2022-08-30T04:33:19.966Z,2.38
2022-08-30T04:36:21.966Z,2.17
2022-08-30T04:39:26.214Z,2.10
2022-08-30T04:42:30.833Z,2.00
2022-08-30T04:45:33.088Z,2.15
2022-08-30T04:48:36.816Z,1.80
2022-08-30T04:51:38.988Z,1.60
2022-08-30T04:57:43.286Z,2.80
2022-08-30T05:00:45.329Z,2.47
2022-08-30T05:03:49.167Z,3.10
2022-08-30T05:06:51.363Z,2.75
2022-08-30T05:12:56.251Z,2.38
2022-08-30T05:15:58.703Z,2.35
2022-08-30T05:19:00.726Z,2.45
2022-08-30T05:25:06.267Z,2.90
2022-08-30T05:28:09.249Z,2.17
2022-08-30T05:31:17.689Z,2.40
2022-08-30T05:34:28.756Z,2.97
2022-08-30T05:37:30.738Z,2.55
2022-08-30T05:40:32.815Z,2.75
2022-08-30T05:43:35.415Z,2.30
2022-08-30T05:46:38.252Z,2.55
2022-08-30T05:49:40.221Z,2.20
2022-08-30T05:52:43.995Z,2.47
2022-08-30T05:55:46.072Z,2.78
2022-08-30T06:01:58.081Z,2.78
2022-08-30T06:05:01.885Z,3.10
2022-08-30T06:08:04.209Z,2.63
2022-08-30T06:11:06.501Z,3.22
2022-08-30T06:14:09.033Z,2.80
2022-08-30T06:17:12.066Z,2.80
2022-08-30T06:20:16.535Z,2.35
2022-08-30T06:23:19.246Z,2.40
2022-08-30T06:26:23.925Z,2.35
2022-08-30T06:29:26.006Z,2.70
2022-08-30T06:35:37.989Z,2.30
2022-08-30T06:38:44.255Z,2.00
2022-08-30T06:41:46.413Z,2.10
2022-08-30T06:45:02.793Z,1.75
2022-08-30T06:48:12.930Z,2.20
2022-08-30T06:51:15.335Z,1.90
2022-08-30T06:54:17.453Z,2.88
2022-08-30T06:57:23.487Z,2.10
2022-08-30T07:00:25.638Z,2.35
2022-08-30T07:03:27.809Z,2.25
2022-08-30T07:06:30.596Z,2.10
2022-08-30T07:12:35.381Z,2.00
2022-08-30T07:15:40.420Z,2.08
2022-08-30T07:18:42.525Z,2.13
2022-08-30T07:21:44.719Z,2.22
2022-08-30T07:24:47.829Z,2.10
2022-08-30T07:27:51.212Z,2.25
2022-08-30T07:30:53.187Z,2.30
2022-08-30T07:33:55.963Z,2.40
2022-08-30T07:36:58.104Z,2.70
2022-08-30T07:40:00.237Z,2.33
2022-08-30T07:43:02.389Z,2.05
2022-08-30T07:46:07.224Z,2.10
2022-08-30T07:49:11.240Z,2.35
2022-08-30T07:52:13.526Z,2.28
2022-08-30T07:55:15.749Z,2.38
2022-08-30T07:58:18.343Z,2.13
2022-08-30T08:01:22.539Z,2.20
2022-08-30T08:04:24.611Z,2.63
2022-08-30T08:07:26.550Z,2.33
2022-08-30T08:10:28.717Z,2.00
2022-08-30T08:13:32.737Z,2.22
2022-08-30T08:16:38.965Z,2.85
2022-08-30T08:19:41.016Z,2.50
2022-08-30T08:22:43.788Z,2.20
2022-08-30T08:25:45.839Z,2.50
2022-08-30T08:28:48.092Z,2.15
2022-08-30T08:31:50.459Z,2.25
2022-08-30T08:34:52.558Z,2.45
2022-08-30T08:37:54.631Z,2.65
2022-08-30T08:41:25.478Z,2.30
2022-08-30T08:44:39.884Z,2.40
2022-08-30T08:47:57.213Z,2.72
2022-08-30T08:51:02.550Z,2.42
2022-08-30T08:54:21.413Z,2.33
2022-08-30T08:57:24.761Z,3.15
2022-08-30T09:00:26.997Z,2.67
2022-08-30T09:03:30.034Z,3.10
2022-08-30T09:06:50.833Z,2.65
2022-08-30T09:09:53.001Z,2.90
2022-08-30T09:12:59.771Z,2.60
2022-08-30T09:16:02.296Z,2.85
2022-08-30T09:19:04.382Z,2.88
2022-08-30T09:22:18.729Z,2.83
2022-08-30T09:25:30.846Z,2.67
2022-08-30T09:28:44.057Z,3.15
2022-08-30T09:32:01.291Z,2.90
2022-08-30T09:35:20.966Z,2.90
2022-08-30T09:38:33.535Z,3.10
2022-08-30T09:41:39.780Z,3.55
2022-08-30T09:44:42.611Z,2.97
2022-08-30T09:47:44.984Z,3.00
2022-08-30T09:50:55.002Z,2.80
2022-08-30T09:54:31.765Z,3.05
2022-08-30T09:57:55.676Z,3.03
2022-08-30T10:01:13.902Z,3.55
2022-08-30T10:04:43.767Z,3.50
2022-08-30T10:07:54.697Z,3.42
2022-08-30T10:11:07.139Z,3.50
2022-08-30T10:14:40.356Z,3.65
2022-08-30T10:18:01.982Z,3.20
2022-08-30T10:21:34.554Z,3.30
2022-08-30T10:24:42.735Z,3.20
2022-08-30T10:27:50.604Z,3.03
2022-08-30T10:31:00.697Z,3.20
2022-08-30T10:34:12.191Z,3.35
2022-08-30T10:37:27.146Z,3.17
2022-08-30T10:40:37.505Z,3.20
2022-08-30T10:43:54.805Z,3.50
2022-08-30T10:47:04.405Z,3.78
2022-08-30T11:03:32.240Z,3.30
2022-08-30T11:07:16.336Z,3.70
2022-08-30T11:13:28.426Z,3.30
2022-08-30T11:16:43.497Z,3.65
2022-08-30T11:19:45.606Z,3.38
2022-08-30T11:23:20.976Z,3.55
2022-08-30T11:26:45.672Z,3.05
2022-08-30T11:29:48.276Z,3.50
2022-08-30T11:33:09.370Z,3.60
2022-08-30T11:36:37.350Z,3.40
2022-08-30T11:39:49.055Z,3.55
2022-08-30T11:42:53.407Z,3.53
2022-08-30T11:46:14.609Z,3.75
2022-08-30T11:49:19.452Z,3.55
2022-08-30T11:52:36.704Z,3.67
2022-08-30T11:56:16.245Z,3.35
2022-08-30T11:59:36.329Z,3.92
2022-08-30T12:02:53.029Z,3.50
2022-08-30T12:06:05.087Z,4.05
2022-08-30T12:09:11.284Z,3.55
2022-08-30T12:12:38.705Z,3.90
2022-08-30T12:16:17.969Z,4.25
2022-08-30T12:19:21.248Z,3.83
2022-08-30T12:22:23.695Z,4.30
2022-08-30T12:25:32.557Z,3.80
2022-08-30T12:28:34.442Z,4.05
2022-08-30T12:31:49.237Z,4.10
2022-08-30T12:35:01.203Z,3.63
2022-08-30T12:38:13.613Z,3.60
2022-08-30T12:41:20.271Z,3.70
2022-08-30T12:44:27.748Z,3.75
2022-08-30T12:47:44.040Z,4.15
2022-08-30T12:50:50.896Z,3.67
2022-08-30T12:53:52.977Z,3.80
2022-08-30T12:57:18.963Z,3.70
2022-08-30T13:00:37.982Z,4.15
2022-08-30T13:03:39.936Z,3.53
2022-08-30T13:06:50.392Z,3.80
2022-08-30T13:10:01.582Z,3.88
2022-08-30T13:13:06.973Z,3.75
2022-08-30T13:16:20.860Z,4.57
2022-08-30T13:19:33.636Z,3.72
2022-08-30T13:22:37.864Z,3.67
2022-08-30T13:25:40.369Z,3.35
2022-08-30T13:28:53.127Z,3.25
2022-08-30T13:31:56.167Z,3.65
2022-08-30T13:34:58.194Z,3.90
2022-08-30T13:38:01.583Z,4.28
2022-08-30T13:41:03.451Z,3.70
2022-08-30T13:44:11.174Z,3.90
2022-08-30T13:50:36.494Z,4.10
2022-08-30T13:53:54.406Z,3.78
2022-08-30T13:56:56.906Z,3.88
2022-08-30T13:59:58.851Z,4.18
2022-08-30T14:03:02.140Z,3.65
2022-08-30T14:06:31.847Z,4.10
2022-08-30T14:09:27.917Z,3.42
2022-08-30T14:16:26.585Z,3.50
2022-08-30T14:19:16.308Z,3.88
2022-08-30T14:22:20.435Z,4.25
2022-08-30T14:25:24.690Z,4.30
2022-08-30T14:28:26.921Z,3.63
2022-08-30T14:31:29.049Z,3.65
2022-08-30T14:34:33.716Z,3.85
2022-08-30T14:37:35.651Z,3.88
2022-08-30T14:40:37.540Z,3.72
2022-08-30T14:43:39.976Z,3.55
2022-08-30T14:46:43.474Z,3.55
2022-08-30T14:49:45.551Z,3.28
2022-08-30T14:52:48.325Z,4.10
2022-08-30T14:55:50.323Z,3.80
2022-08-30T14:58:54.824Z,3.42
2022-08-30T15:01:57.323Z,3.92
2022-08-30T15:04:59.252Z,3.42
2022-08-30T15:08:01.142Z,4.15
2022-08-30T15:11:08.647Z,3.63
2022-08-30T15:14:15.828Z,3.20
2022-08-30T15:17:18.054Z,4.10
2022-08-30T15:20:20.222Z,3.45
2022-08-30T15:23:22.870Z,3.45
2022-08-30T15:26:26.908Z,3.70
2022-08-30T15:29:32.004Z,3.70
2022-08-30T15:32:34.713Z,3.33
2022-08-30T15:35:36.621Z,3.38
2022-08-30T15:38:38.831Z,3.55
2022-08-30T15:41:44.214Z,3.33
2022-08-30T15:44:50.478Z,3.33
2022-08-30T15:47:52.598Z,3.50
2022-08-30T15:50:58.478Z,3.17
2022-08-30T15:54:00.442Z,3.67
2022-08-30T15:57:02.285Z,3.22
2022-08-30T16:00:08.535Z,3.22
2022-08-30T16:03:11.855Z,3.75
2022-08-30T16:06:16.318Z,2.95
2022-08-30T16:09:18.221Z,3.30
2022-08-30T16:12:23.722Z,3.40
2022-08-30T16:15:26.451Z,3.63
2022-08-30T16:18:28.400Z,3.17
2022-08-30T16:24:47.892Z,3.28
2022-08-30T16:27:49.826Z,3.35
2022-08-30T16:30:52.340Z,3.53
2022-08-30T16:33:55.126Z,3.83
2022-08-30T16:36:59.323Z,3.17
2022-08-30T16:40:01.589Z,3.92
2022-08-30T16:43:04.395Z,3.50
2022-08-30T16:46:11.814Z,3.45
2022-08-30T16:49:13.765Z,3.80
2022-08-30T16:52:15.932Z,3.10
2022-08-30T16:55:20.328Z,3.47
2022-08-30T16:58:24.625Z,3.15
2022-08-30T17:01:29.159Z,3.22
2022-08-30T17:04:31.242Z,3.65
2022-08-30T17:07:33.138Z,3.05
2022-08-30T17:10:35.234Z,3.20
2022-08-30T17:13:37.559Z,3.13
2022-08-30T17:16:41.435Z,2.97
2022-08-30T17:19:44.897Z,3.38
2022-08-30T17:22:46.771Z,3.08
2022-08-30T17:25:49.674Z,2.78
2022-08-30T17:28:51.914Z,3.50
2022-08-30T17:31:54.203Z,3.05
2022-08-30T17:34:56.070Z,2.95
2022-08-30T17:38:00.531Z,3.30
2022-08-30T17:41:09.219Z,3.05
2022-08-30T17:44:12.070Z,3.35
2022-08-30T17:47:14.007Z,3.65
2022-08-30T17:50:15.919Z,3.53
2022-08-30T17:53:21.409Z,2.97
2022-08-30T17:56:34.077Z,3.22
2022-08-30T17:59:38.199Z,3.85
2022-08-30T18:02:41.363Z,3.50
2022-08-30T18:05:43.365Z,3.55
2022-08-30T18:08:48.658Z,3.22
2022-08-30T18:11:56.221Z,3.30
2022-08-30T18:15:23.015Z,3.60
2022-08-30T18:18:25.157Z,3.78
2022-08-30T18:21:28.660Z,3.90
2022-08-30T18:24:31.564Z,4.03
2022-08-30T18:27:33.790Z,3.88
2022-08-30T18:30:41.368Z,3.85
2022-08-30T18:33:47.331Z,3.58
2022-08-30T18:36:49.243Z,3.67
2022-08-30T18:39:51.126Z,3.65
2022-08-30T18:42:52.965Z,3.35
2022-08-30T18:45:55.184Z,3.45
2022-08-30T18:49:03.615Z,3.20
2022-08-30T18:52:09.465Z,4.03
2022-08-30T18:55:11.324Z,4.05
2022-08-30T18:58:13.226Z,4.15
2022-08-30T19:01:22.770Z,3.90
2022-08-30T19:04:35.043Z,3.88
2022-08-30T19:07:37.931Z,3.10
2022-08-30T19:10:47.462Z,3.17
2022-08-30T19:13:50.063Z,3.25
2022-08-30T19:16:53.668Z,3.35
2022-08-30T19:19:55.795Z,3.42
2022-08-30T19:23:09.951Z,3.22
2022-08-30T19:26:22.302Z,3.88
2022-08-30T19:29:24.343Z,3.17
2022-08-30T19:32:26.471Z,3.47
2022-08-30T19:35:29.958Z,3.05
2022-08-30T19:38:34.880Z,3.47
2022-08-30T19:41:37.200Z,2.92
2022-08-30T19:44:39.326Z,3.40
2022-08-30T19:47:41.500Z,2.90
2022-08-30T19:50:43.438Z,3.10
2022-08-30T19:53:46.542Z,3.42
2022-08-30T19:56:48.405Z,3.13
2022-08-30T19:59:51.685Z,2.80
2022-08-30T20:02:53.562Z,3.28
2022-08-30T20:05:56.525Z,2.78
2022-08-30T20:08:59.898Z,2.70
2022-08-30T20:12:03.136Z,3.10
2022-08-30T20:15:07.721Z,2.90
2022-08-30T20:18:14.755Z,3.03
2022-08-30T20:21:17.034Z,2.75
2022-08-30T20:24:18.946Z,3.08
2022-08-30T20:27:20.812Z,2.90
2022-08-30T20:30:22.807Z,2.70
2022-08-30T20:33:25.747Z,2.70
2022-08-30T20:36:27.643Z,2.58
2022-08-30T20:39:31.038Z,3.17
2022-08-30T20:42:32.899Z,2.70
2022-08-30T20:45:35.019Z,2.53
2022-08-30T20:48:37.611Z,2.75
2022-08-30T20:51:39.774Z,2.70
2022-08-30T20:54:44.221Z,2.50
2022-08-30T20:57:46.097Z,2.75
2022-08-30T21:00:52.929Z,2.53
2022-08-30T21:03:54.799Z,2.63
2022-08-30T21:06:57.396Z,3.20
2022-08-30T21:10:07.001Z,2.88
2022-08-30T21:13:10.374Z,2.50
2022-08-30T21:16:12.513Z,2.80
2022-08-30T21:19:15.289Z,3.15
2022-08-30T21:22:17.238Z,3.25
2022-08-30T21:25:20.784Z,2.95
2022-08-30T21:28:22.620Z,3.03
2022-08-30T21:31:27.309Z,3.28
2022-08-30T21:34:29.240Z,3.17
2022-08-30T21:37:34.248Z,2.85
2022-08-30T21:40:38.101Z,2.97
2022-08-30T21:43:40.116Z,2.78
2022-08-30T21:49:43.973Z,2.85
2022-08-30T21:52:45.815Z,3.20
2022-08-30T21:58:50.709Z,3.20
2022-08-30T22:01:52.873Z,3.08
2022-08-30T22:04:54.988Z,3.30
2022-08-30T22:07:56.895Z,2.80
2022-08-30T22:14:01.567Z,2.70
2022-08-30T22:17:03.666Z,3.20
2022-08-30T22:20:06.371Z,3.13
2022-08-30T22:23:08.288Z,3.63
2022-08-30T22:29:15.187Z,3.10
2022-08-30T22:32:18.357Z,2.80
2022-08-30T22:35:20.454Z,2.63
2022-08-30T22:38:26.110Z,2.88
2022-08-30T22:41:31.044Z,2.70
2022-08-30T22:44:33.474Z,2.47
2022-08-30T22:47:35.481Z,2.35
2022-08-30T22:50:37.989Z,2.83
2022-08-30T22:53:40.515Z,2.53
2022-08-30T22:56:42.988Z,2.58
2022-08-30T22:59:44.902Z,2.58
2022-08-30T23:02:51.952Z,2.53
2022-08-30T23:05:53.822Z,2.83
2022-08-30T23:08:56.334Z,2.55
2022-08-30T23:11:58.213Z,3.30
2022-08-30T23:15:00.164Z,2.88
2022-08-30T23:18:02.485Z,3.15
2022-08-30T23:21:14.368Z,3.42
2022-08-30T23:24:16.253Z,3.80
2022-08-30T23:27:18.222Z,3.78
2022-08-30T23:30:22.824Z,4.43
2022-08-30T23:33:24.769Z,5.60
2022-08-30T23:36:26.656Z,5.25
2022-08-30T23:42:30.505Z,5.05
2022-08-30T23:45:32.558Z,5.68
2022-08-30T23:48:34.642Z,5.00
2022-08-30T23:51:37.892Z,4.90
2022-08-30T23:54:39.818Z,5.32
2022-08-30T23:57:41.793Z,5.88
